sensor_id;sensor_type;location;lat;lon;timestamp;P1;durP1;ratioP1;P2;durP2;ratioP2
4486;SDS011;2256;48.740;9.106;2022-08-30T00:02:21;12.47;;;7.07;;
4486;SDS011;2256;48.740;9.106;2022-08-30T00:04:48;15.03;;;7.73;;
4486;SDS011;2256;48.740;9.106;2022-08-30T00:07:15;10.70;;;6.73;;
4486;SDS011;2256;48.740;9.106;2022-08-30T00:09:41;9.83;;;7.07;;
4486;SDS011;2256;48.740;9.106;2022-08-30T00:12:08;13.63;;;7.67;;
4486;SDS011;2256;48.740;9.106;2022-08-30T00:14:35;11.13;;;6.53;;
4486;SDS011;2256;48.740;9.106;2022-08-30T00:17:02;16.30;;;6.83;;
4486;SDS011;2256;48.740;9.106;2022-08-30T00:19:31;11.50;;;6.97;;
4486;SDS011;2256;48.740;9.106;2022-08-30T00:21:58;12.63;;;6.40;;
4486;SDS011;2256;48.740;9.106;2022-08-30T00:24:24;16.47;;;7.27;;
4486;SDS011;2256;48.740;9.106;2022-08-30T00:26:51;9.67;;;6.77;;
4486;SDS011;2256;48.740;9.106;2022-08-30T00:29:18;10.27;;;6.80;;
4486;SDS011;2256;48.740;9.106;2022-08-30T00:31:45;12.37;;;6.77;;
4486;SDS011;2256;48.740;9.106;2022-08-30T00:34:12;12.60;;;7.30;;
4486;SDS011;2256;48.740;9.106;2022-08-30T00:36:42;9.30;;;6.73;;
4486;SDS011;2256;48.740;9.106;2022-08-30T00:39:09;10.60;;;5.97;;
4486;SDS011;2256;48.740;9.106;2022-08-30T00:41:36;11.10;;;6.53;;
4486;SDS011;2256;48.740;9.106;2022-08-30T00:44:03;12.90;;;7.30;;
4486;SDS011;2256;48.740;9.106;2022-08-30T00:46:30;16.30;;;6.93;;
4486;SDS011;2256;48.740;9.106;2022-08-30T00:48:57;12.80;;;7.20;;
4486;SDS011;2256;48.740;9.106;2022-08-30T00:51:29;9.93;;;6.77;;
4486;SDS011;2256;48.740;9.106;2022-08-30T00:53:58;11.43;;;6.50;;
4486;SDS011;2256;48.740;9.106;2022-08-30T00:56:27;16.03;;;8.50;;
4486;SDS011;2256;48.740;9.106;2022-08-30T00:58:56;8.67;;;6.70;;
4486;SDS011;2256;48.740;9.106;2022-08-30T01:01:24;12.73;;;7.30;;
4486;SDS011;2256;48.740;9.106;2022-08-30T01:03:51;15.53;;;7.47;;
4486;SDS011;2256;48.740;9.106;2022-08-30T01:06:18;12.00;;;6.90;;
4486;SDS011;2256;48.740;9.106;2022-08-30T01:08:46;12.43;;;7.40;;
4486;SDS011;2256;48.740;9.106;2022-08-30T01:11:16;14.97;;;7.80;;
4486;SDS011;2256;48.740;9.106;2022-08-30T01:13:46;13.73;;;6.37;;
4486;SDS011;2256;48.740;9.106;2022-08-30T01:16:15;14.27;;;6.60;;
4486;SDS011;2256;48.740;9.106;2022-08-30T01:18:42;8.73;;;6.00;;
4486;SDS011;2256;48.740;9.106;2022-08-30T01:21:10;13.40;;;6.90;;
4486;SDS011;2256;48.740;9.106;2022-08-30T01:23:44;19.20;;;7.60;;
4486;SDS011;2256;48.740;9.106;2022-08-30T01:26:13;10.20;;;6.27;;
4486;SDS011;2256;48.740;9.106;2022-08-30T01:28:41;11.70;;;7.27;;
4486;SDS011;2256;48.740;9.106;2022-08-30T01:31:11;18.30;;;7.43;;
4486;SDS011;2256;48.740;9.106;2022-08-30T01:33:38;13.80;;;6.77;;
4486;SDS011;2256;48.740;9.106;2022-08-30T01:36:07;10.67;;;6.80;;
4486;SDS011;2256;48.740;9.106;2022-08-30T01:38:37;14.07;;;7.63;;
4486;SDS011;2256;48.740;9.106;2022-08-30T01:41:11;10.13;;;7.33;;
4486;SDS011;2256;48.740;9.106;2022-08-30T01:43:40;14.20;;;7.33;;
4486;SDS011;2256;48.740;9.106;2022-08-30T01:46:08;11.93;;;7.53;;
4486;SDS011;2256;48.740;9.106;2022-08-30T01:48:35;19.90;;;7.67;;
4486;SDS011;2256;48.740;9.106;2022-08-30T01:51:03;16.63;;;7.80;;
4486;SDS011;2256;48.740;9.106;2022-08-30T01:53:30;9.97;;;7.13;;
4486;SDS011;2256;48.740;9.106;2022-08-30T01:55:57;10.00;;;7.20;;
4486;SDS011;2256;48.740;9.106;2022-08-30T01:58:25;12.10;;;7.00;;
4486;SDS011;2256;48.740;9.106;2022-08-30T02:00:52;15.07;;;7.10;;
4486;SDS011;2256;48.740;9.106;2022-08-30T02:03:19;16.87;;;7.87;;
4486;SDS011;2256;48.740;9.106;2022-08-30T02:05:46;13.67;;;7.47;;
4486;SDS011;2256;48.740;9.106;2022-08-30T02:08:13;17.23;;;7.70;;
4486;SDS011;2256;48.740;9.106;2022-08-30T02:10:40;14.17;;;7.50;;
4486;SDS011;2256;48.740;9.106;2022-08-30T02:13:08;12.73;;;7.47;;
4486;SDS011;2256;48.740;9.106;2022-08-30T02:15:37;12.03;;;7.70;;
4486;SDS011;2256;48.740;9.106;2022-08-30T02:18:04;13.47;;;7.13;;
4486;SDS011;2256;48.740;9.106;2022-08-30T02:20:30;11.30;;;7.50;;
4486;SDS011;2256;48.740;9.106;2022-08-30T02:22:57;10.17;;;7.23;;
4486;SDS011;2256;48.740;9.106;2022-08-30T02:25:24;11.53;;;6.80;;
4486;SDS011;2256;48.740;9.106;2022-08-30T02:27:51;15.43;;;8.47;;
4486;SDS011;2256;48.740;9.106;2022-08-30T02:30:18;13.10;;;7.03;;
4486;SDS011;2256;48.740;9.106;2022-08-30T02:32:46;9.10;;;7.00;;
4486;SDS011;2256;48.740;9.106;2022-08-30T02:35:14;12.40;;;7.07;;
4486;SDS011;2256;48.740;9.106;2022-08-30T02:37:41;13.60;;;7.23;;
4486;SDS011;2256;48.740;9.106;2022-08-30T02:40:08;11.07;;;6.97;;
4486;SDS011;2256;48.740;9.106;2022-08-30T02:42:36;22.60;;;7.87;;
4486;SDS011;2256;48.740;9.106;2022-08-30T02:45:03;18.23;;;7.27;;
4486;SDS011;2256;48.740;9.106;2022-08-30T02:47:30;14.53;;;6.97;;
4486;SDS011;2256;48.740;9.106;2022-08-30T02:50:00;12.10;;;7.13;;
4486;SDS011;2256;48.740;9.106;2022-08-30T02:52:27;12.70;;;7.20;;
4486;SDS011;2256;48.740;9.106;2022-08-30T02:54:54;10.53;;;7.20;;
4486;SDS011;2256;48.740;9.106;2022-08-30T02:57:21;12.57;;;7.70;;
4486;SDS011;2256;48.740;9.106;2022-08-30T02:59:48;12.83;;;7.40;;
4486;SDS011;2256;48.740;9.106;2022-08-30T03:02:15;16.60;;;7.83;;
4486;SDS011;2256;48.740;9.106;2022-08-30T03:04:42;16.67;;;7.87;;
4486;SDS011;2256;48.740;9.106;2022-08-30T03:07:10;15.03;;;7.90;;
4486;SDS011;2256;48.740;9.106;2022-08-30T03:09:38;13.33;;;7.07;;
4486;SDS011;2256;48.740;9.106;2022-08-30T03:12:04;14.50;;;7.77;;
4486;SDS011;2256;48.740;9.106;2022-08-30T03:14:32;16.83;;;7.33;;
4486;SDS011;2256;48.740;9.106;2022-08-30T03:17:00;19.67;;;8.20;;
4486;SDS011;2256;48.740;9.106;2022-08-30T03:19:28;17.47;;;7.80;;
4486;SDS011;2256;48.740;9.106;2022-08-30T03:21:54;12.30;;;7.50;;
4486;SDS011;2256;48.740;9.106;2022-08-30T03:24:23;19.17;;;7.70;;
4486;SDS011;2256;48.740;9.106;2022-08-30T03:26:50;15.90;;;7.97;;
4486;SDS011;2256;48.740;9.106;2022-08-30T03:29:16;17.73;;;8.03;;
4486;SDS011;2256;48.740;9.106;2022-08-30T03:31:43;15.87;;;7.67;;
4486;SDS011;2256;48.740;9.106;2022-08-30T03:34:10;9.97;;;6.70;;
4486;SDS011;2256;48.740;9.106;2022-08-30T03:36:37;12.97;;;8.10;;
4486;SDS011;2256;48.740;9.106;2022-08-30T03:39:04;14.80;;;8.13;;
4486;SDS011;2256;48.740;9.106;2022-08-30T03:41:32;14.30;;;7.70;;
4486;SDS011;2256;48.740;9.106;2022-08-30T03:43:59;11.43;;;7.10;;
4486;SDS011;2256;48.740;9.106;2022-08-30T03:46:27;11.57;;;7.60;;
4486;SDS011;2256;48.740;9.106;2022-08-30T03:48:54;14.07;;;7.63;;
4486;SDS011;2256;48.740;9.106;2022-08-30T03:51:21;12.50;;;8.03;;
4486;SDS011;2256;48.740;9.106;2022-08-30T03:53:48;10.17;;;7.80;;
4486;SDS011;2256;48.740;9.106;2022-08-30T03:56:15;17.10;;;8.03;;
4486;SDS011;2256;48.740;9.106;2022-08-30T03:58:44;9.50;;;6.90;;
4486;SDS011;2256;48.740;9.106;2022-08-30T04:01:11;16.40;;;7.77;;
4486;SDS011;2256;48.740;9.106;2022-08-30T04:03:38;12.80;;;8.17;;
4486;SDS011;2256;48.740;9.106;2022-08-30T04:06:05;9.20;;;7.03;;
4486;SDS011;2256;48.740;9.106;2022-08-30T04:08:32;14.10;;;7.00;;
4486;SDS011;2256;48.740;9.106;2022-08-30T04:10:59;13.53;;;7.30;;
4486;SDS011;2256;48.740;9.106;2022-08-30T04:13:26;16.83;;;8.50;;
4486;SDS011;2256;48.740;9.106;2022-08-30T04:15:55;16.63;;;8.00;;
4486;SDS011;2256;48.740;9.106;2022-08-30T04:18:22;10.30;;;7.30;;
4486;SDS011;2256;48.740;9.106;2022-08-30T04:20:49;12.40;;;8.27;;
4486;SDS011;2256;48.740;9.106;2022-08-30T04:23:16;15.97;;;8.60;;
4486;SDS011;2256;48.740;9.106;2022-08-30T04:25:43;11.37;;;7.63;;
4486;SDS011;2256;48.740;9.106;2022-08-30T04:28:10;14.53;;;7.17;;
4486;SDS011;2256;48.740;9.106;2022-08-30T04:30:37;17.17;;;8.20;;
4486;SDS011;2256;48.740;9.106;2022-08-30T04:33:06;13.30;;;7.70;;
4486;SDS011;2256;48.740;9.106;2022-08-30T04:35:32;17.20;;;8.20;;
4486;SDS011;2256;48.740;9.106;2022-08-30T04:37:59;12.60;;;7.40;;
4486;SDS011;2256;48.740;9.106;2022-08-30T04:40:27;14.87;;;7.43;;
4486;SDS011;2256;48.740;9.106;2022-08-30T04:42:54;13.07;;;7.30;;
4486;SDS011;2256;48.740;9.106;2022-08-30T04:45:21;11.17;;;7.27;;
4486;SDS011;2256;48.740;9.106;2022-08-30T04:47:48;17.40;;;7.80;;
4486;SDS011;2256;48.740;9.106;2022-08-30T04:50:17;12.80;;;7.67;;
4486;SDS011;2256;48.740;9.106;2022-08-30T04:52:45;21.97;;;7.60;;
4486;SDS011;2256;48.740;9.106;2022-08-30T04:55:12;13.20;;;7.50;;
4486;SDS011;2256;48.740;9.106;2022-08-30T04:57:39;15.00;;;7.73;;
4486;SDS011;2256;48.740;9.106;2022-08-30T05:00:08;15.23;;;7.77;;
4486;SDS011;2256;48.740;9.106;2022-08-30T05:02:37;11.60;;;7.57;;
4486;SDS011;2256;48.740;9.106;2022-08-30T05:05:04;10.20;;;6.93;;
4486;SDS011;2256;48.740;9.106;2022-08-30T05:07:55;12.13;;;7.80;;
4486;SDS011;2256;48.740;9.106;2022-08-30T05:10:23;11.87;;;7.80;;
4486;SDS011;2256;48.740;9.106;2022-08-30T05:12:51;13.97;;;6.77;;
4486;SDS011;2256;48.740;9.106;2022-08-30T05:15:18;14.23;;;7.60;;
4486;SDS011;2256;48.740;9.106;2022-08-30T05:17:46;19.47;;;7.47;;
4486;SDS011;2256;48.740;9.106;2022-08-30T05:20:13;17.87;;;7.07;;
4486;SDS011;2256;48.740;9.106;2022-08-30T05:22:41;21.30;;;7.10;;
4486;SDS011;2256;48.740;9.106;2022-08-30T05:25:15;15.53;;;8.13;;
4486;SDS011;2256;48.740;9.106;2022-08-30T05:27:43;15.13;;;7.93;;
4486;SDS011;2256;48.740;9.106;2022-08-30T05:30:11;20.80;;;8.00;;
4486;SDS011;2256;48.740;9.106;2022-08-30T05:32:38;11.93;;;7.03;;
4486;SDS011;2256;48.740;9.106;2022-08-30T05:35:06;11.23;;;7.33;;
4486;SDS011;2256;48.740;9.106;2022-08-30T05:37:34;16.27;;;7.37;;
4486;SDS011;2256;48.740;9.106;2022-08-30T05:40:01;17.37;;;6.90;;
4486;SDS011;2256;48.740;9.106;2022-08-30T05:42:30;11.83;;;7.33;;
4486;SDS011;2256;48.740;9.106;2022-08-30T05:44:57;13.17;;;7.77;;
4486;SDS011;2256;48.740;9.106;2022-08-30T05:47:24;26.20;;;9.10;;
4486;SDS011;2256;48.740;9.106;2022-08-30T05:49:51;16.67;;;9.33;;
4486;SDS011;2256;48.740;9.106;2022-08-30T05:52:18;17.90;;;9.37;;
4486;SDS011;2256;48.740;9.106;2022-08-30T05:54:45;19.53;;;9.30;;
4486;SDS011;2256;48.740;9.106;2022-08-30T05:57:16;22.43;;;9.63;;
4486;SDS011;2256;48.740;9.106;2022-08-30T05:59:45;15.90;;;9.33;;
4486;SDS011;2256;48.740;9.106;2022-08-30T06:02:12;18.17;;;9.87;;
4486;SDS011;2256;48.740;9.106;2022-08-30T06:04:39;16.73;;;9.90;;
4486;SDS011;2256;48.740;9.106;2022-08-30T06:07:06;20.70;;;10.57;;
4486;SDS011;2256;48.740;9.106;2022-08-30T06:09:32;24.30;;;10.40;;
4486;SDS011;2256;48.740;9.106;2022-08-30T06:11:59;21.80;;;9.53;;
4486;SDS011;2256;48.740;9.106;2022-08-30T06:14:26;26.73;;;9.70;;
4486;SDS011;2256;48.740;9.106;2022-08-30T06:16:54;28.37;;;9.23;;
4486;SDS011;2256;48.740;9.106;2022-08-30T06:19:22;19.73;;;9.27;;
4486;SDS011;2256;48.740;9.106;2022-08-30T06:21:49;21.00;;;9.73;;
4486;SDS011;2256;48.740;9.106;2022-08-30T06:24:16;19.23;;;9.60;;
4486;SDS011;2256;48.740;9.106;2022-08-30T06:26:44;16.13;;;9.63;;
4486;SDS011;2256;48.740;9.106;2022-08-30T06:29:13;22.03;;;10.10;;
4486;SDS011;2256;48.740;9.106;2022-08-30T06:31:41;15.20;;;9.27;;
4486;SDS011;2256;48.740;9.106;2022-08-30T06:34:09;14.50;;;8.60;;
4486;SDS011;2256;48.740;9.106;2022-08-30T06:36:36;12.57;;;6.90;;
4486;SDS011;2256;48.740;9.106;2022-08-30T06:39:03;13.30;;;7.57;;
4486;SDS011;2256;48.740;9.106;2022-08-30T06:41:31;17.73;;;7.33;;
4486;SDS011;2256;48.740;9.106;2022-08-30T06:44:00;13.30;;;7.53;;
4486;SDS011;2256;48.740;9.106;2022-08-30T06:46:29;13.90;;;8.33;;
4486;SDS011;2256;48.740;9.106;2022-08-30T06:48:57;10.73;;;7.93;;
4486;SDS011;2256;48.740;9.106;2022-08-30T06:51:27;14.30;;;8.43;;
4486;SDS011;2256;48.740;9.106;2022-08-30T06:53:56;13.97;;;8.10;;
4486;SDS011;2256;48.740;9.106;2022-08-30T06:56:23;12.47;;;7.67;;
4486;SDS011;2256;48.740;9.106;2022-08-30T06:58:50;13.13;;;7.33;;
4486;SDS011;2256;48.740;9.106;2022-08-30T07:01:18;13.50;;;8.23;;
4486;SDS011;2256;48.740;9.106;2022-08-30T07:03:47;15.27;;;8.60;;
4486;SDS011;2256;48.740;9.106;2022-08-30T07:06:14;20.60;;;7.60;;
4486;SDS011;2256;48.740;9.106;2022-08-30T07:08:44;10.53;;;7.80;;
4486;SDS011;2256;48.740;9.106;2022-08-30T07:11:12;17.33;;;7.70;;
4486;SDS011;2256;48.740;9.106;2022-08-30T07:13:38;25.27;;;7.53;;
4486;SDS011;2256;48.740;9.106;2022-08-30T07:16:08;13.93;;;7.13;;
4486;SDS011;2256;48.740;9.106;2022-08-30T07:18:36;22.77;;;8.47;;
4486;SDS011;2256;48.740;9.106;2022-08-30T07:21:21;16.43;;;7.33;;
4486;SDS011;2256;48.740;9.106;2022-08-30T07:23:52;17.83;;;7.70;;
4486;SDS011;2256;48.740;9.106;2022-08-30T07:26:21;13.63;;;7.10;;
4486;SDS011;2256;48.740;9.106;2022-08-30T07:28:50;14.30;;;7.60;;
4486;SDS011;2256;48.740;9.106;2022-08-30T07:31:17;13.87;;;7.40;;
4486;SDS011;2256;48.740;9.106;2022-08-30T07:33:45;17.83;;;6.70;;
4486;SDS011;2256;48.740;9.106;2022-08-30T07:36:12;14.80;;;6.90;;
4486;SDS011;2256;48.740;9.106;2022-08-30T07:38:41;18.33;;;8.13;;
4486;SDS011;2256;48.740;9.106;2022-08-30T07:41:14;16.03;;;8.60;;
4486;SDS011;2256;48.740;9.106;2022-08-30T07:43:42;14.53;;;8.87;;
4486;SDS011;2256;48.740;9.106;2022-08-30T07:46:09;14.13;;;7.90;;
4486;SDS011;2256;48.740;9.106;2022-08-30T07:48:36;14.10;;;8.30;;
4486;SDS011;2256;48.740;9.106;2022-08-30T07:51:03;13.63;;;8.20;;
4486;SDS011;2256;48.740;9.106;2022-08-30T07:53:34;11.07;;;6.93;;
4486;SDS011;2256;48.740;9.106;2022-08-30T07:56:01;11.97;;;7.60;;
4486;SDS011;2256;48.740;9.106;2022-08-30T07:58:30;15.37;;;7.40;;
4486;SDS011;2256;48.740;9.106;2022-08-30T08:00:57;16.43;;;6.70;;
4486;SDS011;2256;48.740;9.106;2022-08-30T08:03:24;16.47;;;8.30;;
4486;SDS011;2256;48.740;9.106;2022-08-30T08:05:51;15.97;;;7.80;;
4486;SDS011;2256;48.740;9.106;2022-08-30T08:08:18;17.60;;;8.10;;
4486;SDS011;2256;48.740;9.106;2022-08-30T08:10:46;11.87;;;7.40;;
4486;SDS011;2256;48.740;9.106;2022-08-30T08:13:12;14.80;;;8.20;;
4486;SDS011;2256;48.740;9.106;2022-08-30T08:15:41;12.10;;;7.00;;
4486;SDS011;2256;48.740;9.106;2022-08-30T08:18:08;14.80;;;7.50;;
4486;SDS011;2256;48.740;9.106;2022-08-30T08:20:34;9.03;;;6.73;;
4486;SDS011;2256;48.740;9.106;2022-08-30T08:23:01;19.50;;;8.30;;
4486;SDS011;2256;48.740;9.106;2022-08-30T08:25:28;10.40;;;6.13;;
4486;SDS011;2256;48.740;9.106;2022-08-30T08:27:55;13.07;;;7.70;;
4486;SDS011;2256;48.740;9.106;2022-08-30T08:30:23;14.00;;;6.70;;
4486;SDS011;2256;48.740;9.106;2022-08-30T08:32:51;16.20;;;6.73;;
4486;SDS011;2256;48.740;9.106;2022-08-30T08:35:18;13.63;;;6.90;;
4486;SDS011;2256;48.740;9.106;2022-08-30T08:37:45;10.60;;;5.80;;
4486;SDS011;2256;48.740;9.106;2022-08-30T08:40:13;11.50;;;6.50;;
4486;SDS011;2256;48.740;9.106;2022-08-30T08:42:47;14.53;;;6.10;;
4486;SDS011;2256;48.740;9.106;2022-08-30T08:45:22;11.20;;;6.13;;
4486;SDS011;2256;48.740;9.106;2022-08-30T08:48:02;9.83;;;6.60;;
4486;SDS011;2256;48.740;9.106;2022-08-30T08:50:32;14.27;;;6.67;;
4486;SDS011;2256;48.740;9.106;2022-08-30T08:53:00;9.87;;;6.50;;
4486;SDS011;2256;48.740;9.106;2022-08-30T08:55:49;11.33;;;5.80;;
4486;SDS011;2256;48.740;9.106;2022-08-30T08:58:19;8.83;;;6.33;;
4486;SDS011;2256;48.740;9.106;2022-08-30T09:00:48;10.60;;;5.47;;
4486;SDS011;2256;48.740;9.106;2022-08-30T09:03:17;26.13;;;6.80;;
4486;SDS011;2256;48.740;9.106;2022-08-30T09:05:46;12.63;;;5.70;;
4486;SDS011;2256;48.740;9.106;2022-08-30T09:08:14;11.37;;;6.30;;
4486;SDS011;2256;48.740;9.106;2022-08-30T09:10:46;10.43;;;5.83;;
4486;SDS011;2256;48.740;9.106;2022-08-30T09:13:15;11.50;;;6.10;;
4486;SDS011;2256;48.740;9.106;2022-08-30T09:15:42;10.93;;;6.40;;
4486;SDS011;2256;48.740;9.106;2022-08-30T09:18:08;5.90;;;5.30;;
4486;SDS011;2256;48.740;9.106;2022-08-30T09:20:38;13.53;;;6.10;;
4486;SDS011;2256;48.740;9.106;2022-08-30T09:23:19;10.73;;;5.77;;
4486;SDS011;2256;48.740;9.106;2022-08-30T09:25:49;6.77;;;6.00;;
4486;SDS011;2256;48.740;9.106;2022-08-30T09:28:19;10.43;;;6.30;;
4486;SDS011;2256;48.740;9.106;2022-08-30T09:30:56;11.83;;;6.03;;
4486;SDS011;2256;48.740;9.106;2022-08-30T09:33:25;12.73;;;6.53;;
4486;SDS011;2256;48.740;9.106;2022-08-30T09:35:54;14.03;;;6.67;;
4486;SDS011;2256;48.740;9.106;2022-08-30T09:38:21;9.50;;;6.00;;
4486;SDS011;2256;48.740;9.106;2022-08-30T09:40:51;7.87;;;5.60;;
4486;SDS011;2256;48.740;9.106;2022-08-30T09:43:22;9.13;;;6.07;;
4486;SDS011;2256;48.740;9.106;2022-08-30T09:46:04;11.67;;;5.93;;
4486;SDS011;2256;48.740;9.106;2022-08-30T09:48:34;11.63;;;6.10;;
4486;SDS011;2256;48.740;9.106;2022-08-30T09:54:03;9.40;;;6.43;;
4486;SDS011;2256;48.740;9.106;2022-08-30T09:56:42;13.53;;;6.23;;
4486;SDS011;2256;48.740;9.106;2022-08-30T09:59:21;8.43;;;6.07;;
4486;SDS011;2256;48.740;9.106;2022-08-30T10:01:59;10.00;;;6.43;;
4486;SDS011;2256;48.740;9.106;2022-08-30T10:04:31;7.00;;;5.33;;
4486;SDS011;2256;48.740;9.106;2022-08-30T10:07:09;10.33;;;5.80;;
4486;SDS011;2256;48.740;9.106;2022-08-30T10:09:41;5.63;;;4.90;;
4486;SDS011;2256;48.740;9.106;2022-08-30T10:12:15;7.20;;;5.73;;
4486;SDS011;2256;48.740;9.106;2022-08-30T10:14:49;9.20;;;5.37;;
4486;SDS011;2256;48.740;9.106;2022-08-30T10:17:23;7.23;;;5.10;;
4486;SDS011;2256;48.740;9.106;2022-08-30T10:20:06;20.83;;;5.50;;
4486;SDS011;2256;48.740;9.106;2022-08-30T10:22:43;7.27;;;5.80;;
4486;SDS011;2256;48.740;9.106;2022-08-30T10:25:15;7.43;;;5.33;;
4486;SDS011;2256;48.740;9.106;2022-08-30T10:27:48;8.57;;;5.63;;
4486;SDS011;2256;48.740;9.106;2022-08-30T10:30:19;7.90;;;5.57;;
4486;SDS011;2256;48.740;9.106;2022-08-30T10:32:48;8.03;;;5.40;;
4486;SDS011;2256;48.740;9.106;2022-08-30T10:35:19;8.70;;;5.47;;
4486;SDS011;2256;48.740;9.106;2022-08-30T10:37:50;7.30;;;5.50;;
4486;SDS011;2256;48.740;9.106;2022-08-30T10:40:22;8.47;;;5.27;;
4486;SDS011;2256;48.740;9.106;2022-08-30T10:43:18;8.97;;;4.83;;
4486;SDS011;2256;48.740;9.106;2022-08-30T10:45:50;7.43;;;4.87;;
4486;SDS011;2256;48.740;9.106;2022-08-30T10:48:22;6.63;;;5.77;;
4486;SDS011;2256;48.740;9.106;2022-08-30T10:50:53;9.00;;;5.33;;
4486;SDS011;2256;48.740;9.106;2022-08-30T10:53:27;9.13;;;5.27;;
4486;SDS011;2256;48.740;9.106;2022-08-30T10:55:59;10.20;;;5.40;;
4486;SDS011;2256;48.740;9.106;2022-08-30T10:58:28;7.77;;;5.70;;
4486;SDS011;2256;48.740;9.106;2022-08-30T11:01:03;7.93;;;5.33;;
4486;SDS011;2256;48.740;9.106;2022-08-30T11:06:54;10.30;;;4.33;;
4486;SDS011;2256;48.740;9.106;2022-08-30T11:09:42;5.53;;;4.30;;
4486;SDS011;2256;48.740;9.106;2022-08-30T11:12:32;7.70;;;3.90;;
4486;SDS011;2256;48.740;9.106;2022-08-30T11:15:10;5.40;;;4.70;;
4486;SDS011;2256;48.740;9.106;2022-08-30T11:17:43;6.17;;;5.23;;
4486;SDS011;2256;48.740;9.106;2022-08-30T11:20:20;6.90;;;4.90;;
4486;SDS011;2256;48.740;9.106;2022-08-30T11:25:54;25.63;;;6.50;;
4486;SDS011;2256;48.740;9.106;2022-08-30T11:31:31;10.70;;;6.30;;
4486;SDS011;2256;48.740;9.106;2022-08-30T11:34:00;6.40;;;5.40;;
4486;SDS011;2256;48.740;9.106;2022-08-30T11:39:39;7.93;;;5.20;;
4486;SDS011;2256;48.740;9.106;2022-08-30T11:42:27;7.30;;;5.53;;
4486;SDS011;2256;48.740;9.106;2022-08-30T11:48:04;6.97;;;5.60;;
4486;SDS011;2256;48.740;9.106;2022-08-30T11:50:34;8.30;;;5.37;;
4486;SDS011;2256;48.740;9.106;2022-08-30T11:53:15;13.63;;;5.07;;
4486;SDS011;2256;48.740;9.106;2022-08-30T11:55:55;8.93;;;5.57;;
4486;SDS011;2256;48.740;9.106;2022-08-30T11:58:34;8.60;;;5.03;;
4486;SDS011;2256;48.740;9.106;2022-08-30T12:03:59;6.53;;;5.43;;
4486;SDS011;2256;48.740;9.106;2022-08-30T12:18:26;16.83;;;6.73;;
4486;SDS011;2256;48.740;9.106;2022-08-30T12:21:12;9.53;;;5.10;;
4486;SDS011;2256;48.740;9.106;2022-08-30T12:23:50;6.13;;;4.63;;
4486;SDS011;2256;48.740;9.106;2022-08-30T12:26:27;9.07;;;5.83;;
4486;SDS011;2256;48.740;9.106;2022-08-30T12:29:08;5.97;;;4.70;;
4486;SDS011;2256;48.740;9.106;2022-08-30T12:31:40;8.20;;;4.83;;
4486;SDS011;2256;48.740;9.106;2022-08-30T12:34:14;6.07;;;5.33;;
4486;SDS011;2256;48.740;9.106;2022-08-30T12:36:51;13.57;;;5.27;;
4486;SDS011;2256;48.740;9.106;2022-08-30T12:39:23;10.63;;;4.87;;
4486;SDS011;2256;48.740;9.106;2022-08-30T12:41:52;6.90;;;4.87;;
4486;SDS011;2256;48.740;9.106;2022-08-30T12:44:20;6.73;;;5.13;;
4486;SDS011;2256;48.740;9.106;2022-08-30T12:46:51;8.57;;;4.83;;
4486;SDS011;2256;48.740;9.106;2022-08-30T12:49:20;9.03;;;5.33;;
4486;SDS011;2256;48.740;9.106;2022-08-30T12:51:51;12.63;;;4.90;;
4486;SDS011;2256;48.740;9.106;2022-08-30T12:54:20;7.27;;;5.27;;
4486;SDS011;2256;48.740;9.106;2022-08-30T12:57:01;6.73;;;5.17;;
4486;SDS011;2256;48.740;9.106;2022-08-30T12:59:38;8.33;;;5.40;;
4486;SDS011;2256;48.740;9.106;2022-08-30T13:02:13;12.00;;;5.20;;
4486;SDS011;2256;48.740;9.106;2022-08-30T13:04:43;12.23;;;5.57;;
4486;SDS011;2256;48.740;9.106;2022-08-30T13:07:11;9.43;;;4.73;;
4486;SDS011;2256;48.740;9.106;2022-08-30T13:09:49;7.60;;;4.87;;
4486;SDS011;2256;48.740;9.106;2022-08-30T13:12:30;7.80;;;5.60;;
4486;SDS011;2256;48.740;9.106;2022-08-30T13:15:09;5.90;;;4.63;;
4486;SDS011;2256;48.740;9.106;2022-08-30T13:17:41;7.37;;;5.50;;
4486;SDS011;2256;48.740;9.106;2022-08-30T13:20:19;6.47;;;4.70;;
4486;SDS011;2256;48.740;9.106;2022-08-30T13:23:02;7.03;;;5.10;;
4486;SDS011;2256;48.740;9.106;2022-08-30T13:25:30;10.87;;;4.80;;
4486;SDS011;2256;48.740;9.106;2022-08-30T13:27:58;6.10;;;4.87;;
4486;SDS011;2256;48.740;9.106;2022-08-30T13:30:25;8.20;;;5.00;;
4486;SDS011;2256;48.740;9.106;2022-08-30T13:32:53;10.53;;;5.40;;
4486;SDS011;2256;48.740;9.106;2022-08-30T13:35:20;7.23;;;4.93;;
4486;SDS011;2256;48.740;9.106;2022-08-30T13:37:47;10.27;;;5.77;;
4486;SDS011;2256;48.740;9.106;2022-08-30T13:40:14;6.33;;;4.97;;
4486;SDS011;2256;48.740;9.106;2022-08-30T13:42:42;6.30;;;4.53;;
4486;SDS011;2256;48.740;9.106;2022-08-30T13:45:09;7.90;;;4.70;;
4486;SDS011;2256;48.740;9.106;2022-08-30T13:47:37;5.60;;;4.77;;
4486;SDS011;2256;48.740;9.106;2022-08-30T13:50:06;5.73;;;4.73;;
4486;SDS011;2256;48.740;9.106;2022-08-30T13:52:33;11.10;;;4.87;;
4486;SDS011;2256;48.740;9.106;2022-08-30T13:55:00;8.77;;;4.63;;
4486;SDS011;2256;48.740;9.106;2022-08-30T13:57:27;7.10;;;5.30;;
4486;SDS011;2256;48.740;9.106;2022-08-30T13:59:55;7.00;;;4.67;;
4486;SDS011;2256;48.740;9.106;2022-08-30T14:02:22;8.40;;;5.50;;
4486;SDS011;2256;48.740;9.106;2022-08-30T14:04:48;6.70;;;4.70;;
4486;SDS011;2256;48.740;9.106;2022-08-30T14:07:17;8.40;;;4.63;;
4486;SDS011;2256;48.740;9.106;2022-08-30T14:09:43;6.33;;;4.80;;
4486;SDS011;2256;48.740;9.106;2022-08-30T14:12:10;7.43;;;4.70;;
4486;SDS011;2256;48.740;9.106;2022-08-30T14:14:37;4.73;;;4.07;;
4486;SDS011;2256;48.740;9.106;2022-08-30T14:17:04;6.90;;;5.00;;
4486;SDS011;2256;48.740;9.106;2022-08-30T14:19:30;5.37;;;4.70;;
4486;SDS011;2256;48.740;9.106;2022-08-30T14:21:57;8.10;;;4.80;;
4486;SDS011;2256;48.740;9.106;2022-08-30T14:24:25;5.60;;;4.50;;
4486;SDS011;2256;48.740;9.106;2022-08-30T14:26:52;7.67;;;5.10;;
4486;SDS011;2256;48.740;9.106;2022-08-30T14:29:20;8.50;;;5.33;;
4486;SDS011;2256;48.740;9.106;2022-08-30T14:31:50;8.60;;;5.30;;
4486;SDS011;2256;48.740;9.106;2022-08-30T14:34:17;8.43;;;5.40;;
4486;SDS011;2256;48.740;9.106;2022-08-30T14:36:45;7.87;;;5.10;;
4486;SDS011;2256;48.740;9.106;2022-08-30T14:39:13;8.83;;;5.43;;
4486;SDS011;2256;48.740;9.106;2022-08-30T14:41:44;7.17;;;5.03;;
4486;SDS011;2256;48.740;9.106;2022-08-30T14:44:13;7.70;;;5.93;;
4486;SDS011;2256;48.740;9.106;2022-08-30T14:46:42;6.37;;;5.17;;
4486;SDS011;2256;48.740;9.106;2022-08-30T14:49:09;8.23;;;5.10;;
4486;SDS011;2256;48.740;9.106;2022-08-30T14:51:36;11.53;;;5.00;;
4486;SDS011;2256;48.740;9.106;2022-08-30T14:54:03;10.50;;;4.80;;
4486;SDS011;2256;48.740;9.106;2022-08-30T14:56:30;14.37;;;5.10;;
4486;SDS011;2256;48.740;9.106;2022-08-30T14:58:58;6.03;;;5.40;;
4486;SDS011;2256;48.740;9.106;2022-08-30T15:01:27;6.47;;;5.27;;
4486;SDS011;2256;48.740;9.106;2022-08-30T15:03:54;7.17;;;5.37;;
4486;SDS011;2256;48.740;9.106;2022-08-30T15:06:22;7.30;;;4.70;;
4486;SDS011;2256;48.740;9.106;2022-08-30T15:08:50;7.13;;;5.43;;
4486;SDS011;2256;48.740;9.106;2022-08-30T15:11:18;7.63;;;4.47;;
4486;SDS011;2256;48.740;9.106;2022-08-30T15:13:46;7.33;;;4.57;;
4486;SDS011;2256;48.740;9.106;2022-08-30T15:16:15;8.80;;;5.03;;
4486;SDS011;2256;48.740;9.106;2022-08-30T15:18:44;12.60;;;5.70;;
4486;SDS011;2256;48.740;9.106;2022-08-30T15:21:11;14.93;;;5.07;;
4486;SDS011;2256;48.740;9.106;2022-08-30T15:23:39;8.97;;;5.67;;
4486;SDS011;2256;48.740;9.106;2022-08-30T15:26:06;9.90;;;5.43;;
4486;SDS011;2256;48.740;9.106;2022-08-30T15:28:33;11.20;;;4.70;;
4486;SDS011;2256;48.740;9.106;2022-08-30T15:31:00;10.50;;;6.17;;
4486;SDS011;2256;48.740;9.106;2022-08-30T15:33:28;9.73;;;5.70;;
4486;SDS011;2256;48.740;9.106;2022-08-30T15:35:58;14.80;;;5.40;;
4486;SDS011;2256;48.740;9.106;2022-08-30T15:38:25;9.80;;;6.70;;
4486;SDS011;2256;48.740;9.106;2022-08-30T15:40:52;18.83;;;5.50;;
4486;SDS011;2256;48.740;9.106;2022-08-30T15:43:23;6.63;;;5.30;;
4486;SDS011;2256;48.740;9.106;2022-08-30T15:45:51;10.90;;;5.30;;
4486;SDS011;2256;48.740;9.106;2022-08-30T15:48:19;7.37;;;6.00;;
4486;SDS011;2256;48.740;9.106;2022-08-30T15:50:47;13.50;;;5.60;;
4486;SDS011;2256;48.740;9.106;2022-08-30T15:53:22;8.93;;;5.57;;